Time;durP1;ratioP1;P1;durP2;ratioP2;P2;SDS_P1;SDS_P2;PMS_P1;PMS_P2;Temp;Humidity;BMP_temperature;BMP_pressure;BME280_temperature;BME280_humidity;BME280_pressure;Samples;Min_cycle;Max_cycle;Signal;HPM_P1;HPM_P2
2020/12/10 00:00:55;;;;;;;36.73;12.70;;;;;;;;;;10229445;28;20066;-62
2020/12/10 00:05:53;;;;;;;36.83;11.73;;;;;;;;;;10217812;28;20058;-64
2020/12/10 00:10:51;;;;;;;33.00;14.38;;;;;;;;;;10220645;28;20037;-63
2020/12/10 00:15:48;;;;;;;20.33;9.27;;;;;;;;;;10250429;28;20035;-62
2020/12/10 00:20:46;;;;;;;53.90;16.90;;;;;;;;;;10227411;28;20030;-63
2020/12/10 00:25:45;;;;;;;40.30;14.03;;;;;;;;;;10215941;28;20503;-65
2020/12/10 00:30:44;;;;;;;28.42;10.38;;;;;;;;;;10233790;28;20073;-65
2020/12/10 00:35:41;;;;;;;;;;;;;;;;;;10227430;28;20053;-62
2020/12/10 00:40:39;;;;;;;38.20;14.07;;;;;;;;;;10210868;28;19925;-64
2020/12/10 00:45:36;;;;;;;34.13;11.30;;;;;;;;;;10235697;28;20277;-63
2020/12/10 00:50:34;;;;;;;50.97;15.30;;;;;;;;;;10215159;28;20096;-62
2020/12/10 00:55:32;;;;;;;39.75;14.77;;;;;;;;;;10224504;28;20452;-62
2020/12/10 01:00:30;;;;;;;46.67;15.63;;;;;;;;;;10224195;28;20107;-56
2020/12/10 01:05:27;;;;;;;31.60;12.23;;;;;;;;;;10228046;28;20121;-61
2020/12/10 01:10:25;;;;;;;51.20;14.83;;;;;;;;;;10235301;28;20066;-61
2020/12/10 01:15:22;;;;;;;39.30;14.57;;;;;;;;;;10235926;28;20042;-61
2020/12/10 01:20:19;;;;;;;34.27;12.23;;;;;;;;;;10243442;28;20124;-62
2020/12/10 01:25:17;;;;;;;17.00;7.73;;;;;;;;;;10231045;28;20041;-64
2020/12/10 01:30:14;;;;;;;33.53;12.17;;;;;;;;;;10232403;28;20408;-63
2020/12/10 01:35:11;;;;;;;27.23;10.27;;;;;;;;;;10222518;28;20041;-62
2020/12/10 01:40:09;;;;;;;19.43;8.17;;;;;;;;;;10241263;28;20088;-60
2020/12/10 01:45:07;;;;;;;22.10;8.00;;;;;;;;;;10218245;28;20527;-63
2020/12/10 01:50:05;;;;;;;36.22;12.90;;;;;;;;;;10237619;28;20499;-61
2020/12/10 01:55:02;;;;;;;23.47;8.87;;;;;;;;;;10229508;28;20122;-63
2020/12/10 02:00:00;;;;;;;35.70;11.53;;;;;;;;;;10235487;28;20455;-61
2020/12/10 02:04:57;;;;;;;28.20;10.90;;;;;;;;;;10242895;28;20037;-64
2020/12/10 02:09:55;;;;;;;43.87;14.23;;;;;;;;;;10250316;28;20076;-64
2020/12/10 02:14:52;;;;;;;28.23;10.47;;;;;;;;;;10225187;28;20034;-66
2020/12/10 02:19:50;;;;;;;31.40;12.23;;;;;;;;;;10230339;28;20121;-64
2020/12/10 02:24:47;;;;;;;26.13;9.93;;;;;;;;;;10225923;28;20042;-62
2020/12/10 02:29:44;;;;;;;29.23;9.27;;;;;;;;;;10223204;28;20030;-65
2020/12/10 02:34:42;;;;;;;33.53;11.37;;;;;;;;;;10229288;28;20060;-63
2020/12/10 02:39:39;;;;;;;15.67;4.47;;;;;;;;;;10241779;28;20030;-64
2020/12/10 02:44:37;;;;;;;15.10;6.87;;;;;;;;;;10240439;28;20034;-66
2020/12/10 02:49:34;;;;;;;21.70;7.73;;;;;;;;;;10219760;28;20039;-63
2020/12/10 02:54:31;;;;;;;20.87;6.13;;;;;;;;;;10233860;28;20050;-65
2020/12/10 02:59:29;;;;;;;23.60;7.87;;;;;;;;;;10235719;28;20046;-64
2020/12/10 03:04:26;;;;;;;14.50;6.17;;;;;;;;;;10239602;28;20411;-64
2020/12/10 03:09:23;;;;;;;14.50;6.23;;;;;;;;;;10237817;28;20041;-63
2020/12/10 03:14:21;;;;;;;10.97;4.47;;;;;;;;;;10224202;28;20415;-65
2020/12/10 03:19:19;;;;;;;22.15;5.18;;;;;;;;;;10184104;28;20080;-64
2020/12/10 03:24:16;;;;;;;9.90;5.43;;;;;;;;;;10228300;28;20698;-62
2020/12/10 03:29:14;;;;;;;38.07;11.30;;;;;;;;;;10222370;28;20041;-62
2020/12/10 03:34:11;;;;;;;23.90;7.90;;;;;;;;;;10227724;28;20143;-58
2020/12/10 03:39:08;;;;;;;12.93;6.17;;;;;;;;;;10209849;28;20042;-62
2020/12/10 03:44:06;;;;;;;14.13;6.77;;;;;;;;;;10247749;28;20049;-63
2020/12/10 03:49:03;;;;;;;7.13;3.70;;;;;;;;;;10238672;28;20044;-60
2020/12/10 03:54:01;;;;;;;8.33;3.90;;;;;;;;;;10252510;28;20495;-64
2020/12/10 03:58:59;;;;;;;9.87;5.30;;;;;;;;;;10237523;28;20080;-64
2020/12/10 04:03:56;;;;;;;7.80;4.30;;;;;;;;;;10236711;28;20045;-62
2020/12/10 04:08:54;;;;;;;9.23;2.47;;;;;;;;;;10240108;28;20041;-63
2020/12/10 04:13:51;;;;;;;10.67;4.80;;;;;;;;;;10233503;28;20038;-62
2020/12/10 04:18:48;;;;;;;7.87;2.90;;;;;;;;;;10232034;28;20035;-64
2020/12/10 04:23:46;;;;;;;16.47;5.90;;;;;;;;;;10232884;28;20038;-62
2020/12/10 04:28:44;;;;;;;14.90;4.57;;;;;;;;;;10236019;28;20040;-63
2020/12/10 04:33:41;;;;;;;3.60;3.20;;;;;;;;;;10223053;28;20037;-63
2020/12/10 04:38:38;;;;;;;26.40;7.07;;;;;;;;;;10217859;28;20114;-63
2020/12/10 04:43:36;;;;;;;22.93;7.13;;;;;;;;;;10223521;28;20046;-66
2020/12/10 04:48:34;;;;;;;13.87;6.97;;;;;;;;;;10211611;28;20038;-64
2020/12/10 04:53:31;;;;;;;23.23;8.63;;;;;;;;;;10239491;28;20499;-65
2020/12/10 04:58:29;;;;;;;25.60;10.40;;;;;;;;;;10234593;28;20060;-65
2020/12/10 05:03:26;;;;;;;30.77;9.40;;;;;;;;;;10232182;28;20081;-64
2020/12/10 05:08:30;;;;;;;32.43;12.37;;;;;;;;;;10244681;28;20045;-64
2020/12/10 05:13:28;;;;;;;46.25;13.45;;;;;;;;;;10220946;28;20117;-64
2020/12/10 05:18:27;;;;;;;21.23;9.20;;;;;;;;;;10229725;28;20462;-66
2020/12/10 05:23:27;;;;;;;31.88;11.75;;;;;;;;;;10224564;28;20054;-62
2020/12/10 05:28:25;;;;;;;29.42;11.48;;;;;;;;;;10227341;28;20065;-63
2020/12/10 05:33:23;;;;;;;32.28;11.43;;;;;;;;;;10240493;28;20439;-64
2020/12/10 05:38:20;;;;;;;49.77;13.93;;;;;;;;;;10231102;28;20034;-65
2020/12/10 05:43:21;;;;;;;25.80;7.53;;;;;;;;;;10233104;28;20177;-62
2020/12/10 05:48:19;;;;;;;16.42;5.85;;;;;;;;;;10253336;28;20412;-62
2020/12/10 05:53:19;;;;;;;31.15;11.48;;;;;;;;;;10219462;28;20034;-62
2020/12/10 05:58:18;;;;;;;41.72;11.68;;;;;;;;;;10228233;28;20145;-61
2020/12/10 06:03:16;;;;;;;42.95;11.45;;;;;;;;;;10226479;28;20059;-63
2020/12/10 06:08:13;;;;;;;34.73;12.67;;;;;;;;;;10239374;28;20045;-63
2020/12/10 06:13:11;;;;;;;36.83;12.17;;;;;;;;;;10231555;28;20038;-62
2020/12/10 06:18:13;;;;;;;41.53;12.63;;;;;;;;;;10225403;28;20038;-62
2020/12/10 06:23:23;;;;;;;26.73;10.48;;;;;;;;;;10216969;28;20045;-64
2020/12/10 06:28:21;;;;;;;36.17;12.68;;;;;;;;;;10227892;28;20066;-63
2020/12/10 06:33:33;;;;;;;12.75;6.30;;;;;;;;;;10222569;28;20056;-63
2020/12/10 06:38:41;;;;;;;16.95;9.68;;;;;;;;;;10210228;28;20077;-62
2020/12/10 06:43:38;;;;;;;32.10;10.65;;;;;;;;;;10214321;28;20048;-63
2020/12/10 06:48:45;;;;;;;27.53;10.23;;;;;;;;;;10215878;28;20030;-63
2020/12/10 06:54:01;;;;;;;18.50;6.80;;;;;;;;;;10231299;28;20049;-65
2020/12/10 06:59:03;;;;;;;9.25;4.68;;;;;;;;;;10209602;28;20046;-63
2020/12/10 07:04:12;;;;;;;23.23;7.95;;;;;;;;;;10210240;28;20049;-63
2020/12/10 07:09:13;;;;;;;16.65;5.28;;;;;;;;;;10224040;28;21054;-63
2020/12/10 07:14:22;;;;;;;37.67;10.43;;;;;;;;;;10218814;28;20060;-63
2020/12/10 07:19:19;;;;;;;23.70;9.83;;;;;;;;;;10219793;28;20049;-63
2020/12/10 07:24:18;;;;;;;17.37;6.63;;;;;;;;;;10213647;28;20045;-64
2020/12/10 07:29:15;;;;;;;;;;;;;;;;;;10228910;28;20054;-63
2020/12/10 07:34:12;;;;;;;39.72;11.23;;;;;;;;;;10216115;28;19993;-63
2020/12/10 07:39:10;;;;;;;14.23;7.10;;;;;;;;;;10235677;28;20042;-62
2020/12/10 07:44:07;;;;;;;15.27;7.17;;;;;;;;;;10212382;28;20469;-64
2020/12/10 07:49:04;;;;;;;27.90;10.27;;;;;;;;;;10197824;28;20038;-63
2020/12/10 07:54:03;;;;;;;27.87;11.40;;;;;;;;;;10228850;28;20038;-63
2020/12/10 07:59:01;;;;;;;;;;;;;;;;;;10192429;28;20519;-63
2020/12/10 08:04:19;;;;;;;35.05;13.52;;;;;;;;;;10211423;28;20937;-62
2020/12/10 08:09:17;;;;;;;27.47;11.37;;;;;;;;;;10202889;28;21117;-63
2020/12/10 08:14:22;;;;;;;31.42;9.70;;;;;;;;;;10226247;28;20092;-65
2020/12/10 08:19:21;;;;;;;28.42;9.60;;;;;;;;;;10200395;28;20030;-65
2020/12/10 08:24:33;;;;;;;38.00;14.30;;;;;;;;;;10226918;28;20046;-63
2020/12/10 08:29:31;;;;;;;43.25;17.08;;;;;;;;;;10231201;28;20132;-63
2020/12/10 08:34:28;;;;;;;36.43;11.90;;;;;;;;;;10236992;28;20093;-63
2020/12/10 08:39:30;;;;;;;46.90;14.10;;;;;;;;;;10235604;28;20046;-65
2020/12/10 08:44:48;;;;;;;25.70;9.23;;;;;;;;;;10234505;28;20096;-64
2020/12/10 08:49:45;;;;;;;36.53;13.07;;;;;;;;;;10213052;28;20097;-63
2020/12/10 08:54:43;;;;;;;22.03;8.80;;;;;;;;;;10235265;28;20565;-64
2020/12/10 08:59:40;;;;;;;19.93;9.40;;;;;;;;;;10202694;28;20101;-64
2020/12/10 09:04:38;;;;;;;34.33;12.37;;;;;;;;;;10227807;28;20064;-63
2020/12/10 09:09:35;;;;;;;38.80;9.63;;;;;;;;;;10221934;28;21914;-61
2020/12/10 09:14:32;;;;;;;40.23;13.30;;;;;;;;;;10218455;28;20038;-63
2020/12/10 09:19:30;;;;;;;21.37;8.90;;;;;;;;;;10208444;28;20121;-65
2020/12/10 09:24:27;;;;;;;31.53;12.10;;;;;;;;;;10194287;28;20092;-64
2020/12/10 09:29:24;;;;;;;26.03;9.13;;;;;;;;;;10222618;28;20117;-63
2020/12/10 09:34:22;;;;;;;23.40;9.03;;;;;;;;;;10221291;28;20038;-63
2020/12/10 09:39:19;;;;;;;19.53;8.83;;;;;;;;;;10239170;28;20104;-63
2020/12/10 09:44:17;;;;;;;27.17;11.13;;;;;;;;;;10213097;28;20040;-63
2020/12/10 09:49:14;;;;;;;24.13;10.70;;;;;;;;;;10210672;28;20034;-65
2020/12/10 09:59:36;;;;;;;42.85;13.52;;;;;;;;;;10171615;28;20653;-66
2020/12/10 10:04:34;;;;;;;40.38;12.82;;;;;;;;;;10211895;28;20133;-63
2020/12/10 10:09:32;;;;;;;29.50;10.97;;;;;;;;;;10219465;28;20130;-64
2020/12/10 10:14:29;;;;;;;44.55;14.98;;;;;;;;;;10210172;28;20054;-64
2020/12/10 10:19:26;;;;;;;44.93;15.40;;;;;;;;;;10208776;28;20058;-65
2020/12/10 10:24:24;;;;;;;32.37;13.17;;;;;;;;;;10226088;28;21154;-65
2020/12/10 10:29:21;;;;;;;22.30;10.33;;;;;;;;;;10227615;28;20044;-66
2020/12/10 10:34:19;;;;;;;16.67;7.80;;;;;;;;;;10223148;28;20354;-68
2020/12/10 10:39:17;;;;;;;22.10;11.33;;;;;;;;;;10202913;28;20041;-65
2020/12/10 10:44:14;;;;;;;33.97;10.70;;;;;;;;;;10214563;28;20512;-66
2020/12/10 10:49:15;;;;;;;22.87;12.23;;;;;;;;;;10212266;28;20038;-66
2020/12/10 10:54:13;;;;;;;17.42;9.85;;;;;;;;;;10223130;28;20412;-66
2020/12/10 10:59:10;;;;;;;32.17;10.73;;;;;;;;;;10225027;28;20049;-64
2020/12/10 11:04:08;;;;;;;37.97;14.07;;;;;;;;;;10221198;28;20049;-64
2020/12/10 11:09:05;;;;;;;35.10;10.60;;;;;;;;;;10222373;28;20033;-64
2020/12/10 11:14:03;;;;;;;19.77;9.20;;;;;;;;;;10216801;28;20038;-63
2020/12/10 11:19:00;;;;;;;17.43;7.97;;;;;;;;;;10212956;28;20040;-64
2020/12/10 11:23:57;;;;;;;20.80;11.10;;;;;;;;;;10214502;28;20455;-64
2020/12/10 11:28:55;;;;;;;15.50;8.37;;;;;;;;;;10223229;28;20027;-65
2020/12/10 11:33:52;;;;;;;17.47;7.87;;;;;;;;;;10220257;28;20042;-65
2020/12/10 11:38:49;;;;;;;22.57;8.73;;;;;;;;;;10213648;28;20041;-67
2020/12/10 11:43:47;;;;;;;18.20;8.83;;;;;;;;;;10207635;28;20038;-64
2020/12/10 11:48:45;;;;;;;24.97;9.90;;;;;;;;;;10241342;28;20092;-66
2020/12/10 11:53:43;;;;;;;20.87;9.40;;;;;;;;;;10220251;28;20038;-65
2020/12/10 11:58:40;;;;;;;28.42;8.80;;;;;;;;;;10242354;28;20084;-64
2020/12/10 12:03:38;;;;;;;20.03;8.50;;;;;;;;;;10239590;28;20581;-63
2020/12/10 12:08:35;;;;;;;17.97;8.10;;;;;;;;;;10242420;28;20113;-63
2020/12/10 12:13:33;;;;;;;12.53;6.00;;;;;;;;;;10215439;28;20034;-63
2020/12/10 12:18:30;;;;;;;17.70;7.40;;;;;;;;;;10217242;23;20524;-65
2020/12/10 12:23:28;;;;;;;16.77;6.63;;;;;;;;;;10183834;28;20034;-65
2020/12/10 12:28:25;;;;;;;21.80;9.13;;;;;;;;;;10176046;28;20109;-64
2020/12/10 12:33:23;;;;;;;17.77;7.93;;;;;;;;;;10203870;28;20031;-65
2020/12/10 12:38:20;;;;;;;16.03;6.87;;;;;;;;;;10199045;28;20125;-65
2020/12/10 12:43:18;;;;;;;12.40;5.33;;;;;;;;;;10200929;28;20054;-65
2020/12/10 12:48:15;;;;;;;23.03;6.57;;;;;;;;;;10162934;28;20121;-65
2020/12/10 12:53:14;;;;;;;14.00;6.83;;;;;;;;;;10209923;28;20420;-64
2020/12/10 12:58:11;;;;;;;18.30;8.18;;;;;;;;;;10191418;28;20129;-64
2020/12/10 13:03:09;;;;;;;10.20;6.30;;;;;;;;;;10146199;28;20121;-64
2020/12/10 13:08:06;;;;;;;15.53;6.77;;;;;;;;;;10187722;28;20034;-64
2020/12/10 13:13:04;;;;;;;18.63;8.57;;;;;;;;;;10208657;28;20364;-65
2020/12/10 13:18:02;;;;;;;14.32;7.15;;;;;;;;;;10186565;28;20042;-65
2020/12/10 13:22:59;;;;;;;4.47;2.97;;;;;;;;;;10174682;28;20031;-65
2020/12/10 13:27:57;;;;;;;7.17;4.07;;;;;;;;;;10196843;28;20113;-64
2020/12/10 13:32:55;;;;;;;8.63;5.15;;;;;;;;;;10223287;28;20137;-64
2020/12/10 13:37:52;;;;;;;7.63;4.57;;;;;;;;;;10195074;28;20121;-65
2020/12/10 13:42:50;;;;;;;7.40;4.67;;;;;;;;;;10215806;28;20064;-65
2020/12/10 13:47:48;;;;;;;;;;;;;;;;;;10253249;28;20038;-65
2020/12/10 13:52:45;;;;;;;4.78;4.00;;;;;;;;;;10215592;28;20303;-64
2020/12/10 13:57:44;;;;;;;7.47;3.70;;;;;;;;;;10241853;28;20129;-65
2020/12/10 14:02:41;;;;;;;14.52;5.78;;;;;;;;;;10220719;28;20037;-65
2020/12/10 14:07:38;;;;;;;9.07;3.97;;;;;;;;;;10238278;28;20026;-64
2020/12/10 14:12:36;;;;;;;8.57;4.73;;;;;;;;;;10212887;28;20484;-65
2020/12/10 14:17:33;;;;;;;12.23;5.07;;;;;;;;;;10225371;28;20041;-65
2020/12/10 14:22:31;;;;;;;12.27;4.47;;;;;;;;;;10172732;28;20053;-65
2020/12/10 14:27:28;;;;;;;14.67;4.30;;;;;;;;;;10167291;28;20030;-65
2020/12/10 14:32:26;;;;;;;4.83;3.30;;;;;;;;;;10190223;28;20104;-65
2020/12/10 14:37:23;;;;;;;7.17;3.83;;;;;;;;;;10184421;28;20035;-65
2020/12/10 14:42:20;;;;;;;4.43;3.43;;;;;;;;;;10185182;28;20863;-65
2020/12/10 14:47:18;;;;;;;8.83;3.27;;;;;;;;;;10182668;28;20586;-65
2020/12/10 14:52:15;;;;;;;8.53;3.33;;;;;;;;;;10189240;28;20038;-64
2020/12/10 14:57:12;;;;;;;8.13;3.37;;;;;;;;;;10192390;28;20088;-66
2020/12/10 15:02:10;;;;;;;19.98;7.18;;;;;;;;;;10178640;28;20070;-65
2020/12/10 15:07:08;;;;;;;13.70;6.70;;;;;;;;;;10184748;28;20986;-65
2020/12/10 15:12:05;;;;;;;15.87;7.17;;;;;;;;;;10191972;28;20037;-65
2020/12/10 15:17:03;;;;;;;7.17;4.63;;;;;;;;;;10180904;28;20045;-64
2020/12/10 15:22:00;;;;;;;4.20;2.63;;;;;;;;;;10189935;28;20112;-65
2020/12/10 15:26:57;;;;;;;6.97;3.70;;;;;;;;;;10210787;28;20118;-65
2020/12/10 15:31:55;;;;;;;12.47;6.00;;;;;;;;;;10172357;28;20078;-65
2020/12/10 15:36:54;;;;;;;5.10;3.30;;;;;;;;;;10192911;28;20056;-65
2020/12/10 15:41:56;;;;;;;11.30;5.32;;;;;;;;;;10198536;28;20034;-65
2020/12/10 15:46:54;;;;;;;5.80;2.90;;;;;;;;;;10204336;28;20027;-65
2020/12/10 15:51:56;;;;;;;12.50;6.63;;;;;;;;;;10196366;28;20031;-65
2020/12/10 15:56:54;;;;;;;18.50;9.05;;;;;;;;;;10182805;28;20062;-65
2020/12/10 16:01:52;;;;;;;13.33;5.77;;;;;;;;;;10212548;28;20141;-65
2020/12/10 16:06:50;;;;;;;17.38;6.45;;;;;;;;;;10185761;28;20493;-66
2020/12/10 16:11:48;;;;;;;11.93;5.50;;;;;;;;;;10188092;28;21363;-65
2020/12/10 16:16:45;;;;;;;10.23;6.00;;;;;;;;;;10195164;28;20035;-65
2020/12/10 16:21:42;;;;;;;17.27;7.63;;;;;;;;;;10160273;28;20027;-65
2020/12/10 16:26:40;;;;;;;17.93;6.93;;;;;;;;;;10190965;28;20105;-64
2020/12/10 16:31:37;;;;;;;27.90;9.43;;;;;;;;;;10190293;28;20035;-65
2020/12/10 16:36:35;;;;;;;18.60;7.83;;;;;;;;;;10175920;28;20034;-65
2020/12/10 16:41:32;;;;;;;17.00;6.90;;;;;;;;;;10169335;28;20571;-65
2020/12/10 16:46:29;;;;;;;22.60;8.93;;;;;;;;;;10198217;28;20035;-65
2020/12/10 16:51:27;;;;;;;29.13;9.33;;;;;;;;;;10200418;28;20126;-65
2020/12/10 16:56:24;;;;;;;14.93;7.37;;;;;;;;;;10181874;28;20069;-65
2020/12/10 17:01:21;;;;;;;16.17;6.60;;;;;;;;;;10196336;28;20134;-65
2020/12/10 17:06:19;;;;;;;21.37;8.27;;;;;;;;;;10198836;28;20089;-65
2020/12/10 17:11:21;;;;;;;37.03;12.63;;;;;;;;;;10207786;28;20042;-65
2020/12/10 17:16:19;;;;;;;31.38;10.02;;;;;;;;;;10194394;28;20050;-65
2020/12/10 17:21:20;;;;;;;22.80;9.57;;;;;;;;;;10189746;28;20727;-65
2020/12/10 17:26:18;;;;;;;25.23;9.43;;;;;;;;;;10197663;28;20054;-65
2020/12/10 17:31:17;;;;;;;35.03;13.05;;;;;;;;;;10202280;28;20043;-65
2020/12/10 17:36:21;;;;;;;27.08;8.27;;;;;;;;;;10184971;28;20049;-65
2020/12/10 17:41:19;;;;;;;34.00;12.15;;;;;;;;;;10178973;28;20038;-64
2020/12/10 17:46:17;;;;;;;29.80;10.77;;;;;;;;;;10193944;28;20497;-64
2020/12/10 17:51:16;;;;;;;49.75;17.27;;;;;;;;;;10187885;28;20038;-64
2020/12/10 17:56:13;;;;;;;48.50;15.90;;;;;;;;;;10192782;28;20141;-65
2020/12/10 18:01:11;;;;;;;33.93;13.83;;;;;;;;;;10185959;28;20597;-64
2020/12/10 18:06:09;;;;;;;41.05;14.27;;;;;;;;;;10178915;28;20603;-64
2020/12/10 18:11:06;;;;;;;38.30;12.47;;;;;;;;;;10199352;28;20038;-65
2020/12/10 18:16:04;;;;;;;37.70;13.43;;;;;;;;;;10196200;28;20278;-64
2020/12/10 18:21:02;;;;;;;46.40;17.77;;;;;;;;;;10202857;28;20104;-64
2020/12/10 18:25:59;;;;;;;53.60;18.08;;;;;;;;;;10211183;28;20031;-64
2020/12/10 18:30:56;;;;;;;47.30;16.73;;;;;;;;;;10230623;28;20246;-64
2020/12/10 18:35:56;;;;;;;56.73;17.90;;;;;;;;;;10206562;28;20133;-62
2020/12/10 18:40:54;;;;;;;47.72;16.13;;;;;;;;;;10202131;28;20049;-59
2020/12/10 18:45:51;;;;;;;38.80;14.20;;;;;;;;;;10171981;28;20034;-61
2020/12/10 18:50:48;;;;;;;30.87;12.03;;;;;;;;;;10204868;28;20031;-61
2020/12/10 18:55:46;;;;;;;50.23;17.37;;;;;;;;;;10203129;28;20043;-62
2020/12/10 19:00:43;;;;;;;33.97;10.77;;;;;;;;;;10201470;28;20031;-63
2020/12/10 19:05:41;;;;;;;48.00;16.63;;;;;;;;;;10193541;28;20043;-64
2020/12/10 19:10:38;;;;;;;51.30;15.97;;;;;;;;;;10195427;28;20041;-61
2020/12/10 19:15:36;;;;;;;42.23;15.60;;;;;;;;;;10183513;28;20030;-61
2020/12/10 19:20:33;;;;;;;50.73;16.47;;;;;;;;;;10196657;28;20121;-62
2020/12/10 19:25:31;;;;;;;52.17;16.87;;;;;;;;;;10199782;28;20092;-61
2020/12/10 19:30:28;;;;;;;35.33;10.20;;;;;;;;;;10202319;28;20057;-61
2020/12/10 19:35:26;;;;;;;29.60;13.13;;;;;;;;;;10193797;28;20130;-62
2020/12/10 19:40:23;;;;;;;37.33;10.63;;;;;;;;;;10198596;28;20042;-61
2020/12/10 19:45:20;;;;;;;18.77;8.77;;;;;;;;;;10183058;28;20511;-62
2020/12/10 19:50:18;;;;;;;43.10;16.07;;;;;;;;;;10201279;28;20043;-62
2020/12/10 19:55:15;;;;;;;39.90;13.33;;;;;;;;;;10198065;28;20038;-63
2020/12/10 20:00:13;;;;;;;28.20;10.50;;;;;;;;;;10170214;28;20038;-62
2020/12/10 20:05:10;;;;;;;28.93;9.97;;;;;;;;;;10188454;28;20096;-61
2020/12/10 20:10:08;;;;;;;34.80;13.80;;;;;;;;;;10186715;28;20046;-62
2020/12/10 20:15:05;;;;;;;40.20;13.87;;;;;;;;;;10172305;28;20042;-60
2020/12/10 20:20:04;;;;;;;46.73;16.57;;;;;;;;;;10183660;28;20034;-61
2020/12/10 20:25:04;;;;;;;43.45;14.57;;;;;;;;;;10190526;28;20073;-64
2020/12/10 20:30:01;;;;;;;32.80;13.57;;;;;;;;;;10192675;28;20049;-65
2020/12/10 20:34:59;;;;;;;31.08;10.77;;;;;;;;;;10174980;28;20053;-62
2020/12/10 20:39:57;;;;;;;40.37;13.83;;;;;;;;;;10191715;28;20073;-64
2020/12/10 20:44:54;;;;;;;55.90;16.63;;;;;;;;;;10195097;28;20440;-63
2020/12/10 20:49:52;;;;;;;51.30;16.90;;;;;;;;;;10193002;28;20819;-64
2020/12/10 20:54:49;;;;;;;40.43;13.80;;;;;;;;;;10190776;28;20038;-62
2020/12/10 20:59:47;;;;;;;29.70;11.73;;;;;;;;;;10183767;28;20038;-62
2020/12/10 21:04:44;;;;;;;37.40;13.17;;;;;;;;;;10206930;28;20567;-61
2020/12/10 21:09:42;;;;;;;46.20;14.77;;;;;;;;;;10192346;28;20046;-61
2020/12/10 21:14:39;;;;;;;28.30;10.97;;;;;;;;;;10173560;28;20042;-62
2020/12/10 21:19:36;;;;;;;30.63;13.07;;;;;;;;;;10193662;28;20120;-62
2020/12/10 21:24:34;;;;;;;27.83;8.37;;;;;;;;;;10178462;28;20022;-62
2020/12/10 21:29:31;;;;;;;32.00;11.37;;;;;;;;;;10206099;28;20043;-61
2020/12/10 21:34:30;;;;;;;38.87;11.40;;;;;;;;;;10222608;28;20026;-61
2020/12/10 21:39:28;;;;;;;46.58;16.20;;;;;;;;;;10219548;28;20065;-62
2020/12/10 21:44:25;;;;;;;27.73;10.37;;;;;;;;;;10216452;28;20034;-60
2020/12/10 21:49:23;;;;;;;29.53;10.13;;;;;;;;;;10214868;28;20109;-62
2020/12/10 21:54:21;;;;;;;27.80;10.73;;;;;;;;;;10263515;28;20041;-66
2020/12/10 21:59:19;;;;;;;30.50;11.27;;;;;;;;;;10239229;28;20415;-63
2020/12/10 22:04:16;;;;;;;30.47;12.00;;;;;;;;;;10251608;28;20035;-62
2020/12/10 22:09:14;;;;;;;19.93;7.87;;;;;;;;;;10240801;28;21204;-62
2020/12/10 22:14:15;;;;;;;28.80;10.40;;;;;;;;;;10245526;28;20046;-62
2020/12/10 22:19:12;;;;;;;17.00;7.50;;;;;;;;;;10259935;28;20621;-64
2020/12/10 22:24:10;;;;;;;27.63;9.20;;;;;;;;;;10233377;28;20488;-63
2020/12/10 22:29:07;;;;;;;31.13;10.15;;;;;;;;;;10225087;28;20030;-59
2020/12/10 22:34:05;;;;;;;25.30;8.47;;;;;;;;;;10259360;28;20049;-62
2020/12/10 22:39:02;;;;;;;20.23;7.97;;;;;;;;;;10235665;28;20452;-63
2020/12/10 22:44:00;;;;;;;29.17;11.03;;;;;;;;;;10218570;28;20038;-62
2020/12/10 22:48:57;;;;;;;22.77;9.60;;;;;;;;;;10232969;28;20031;-63
2020/12/10 22:53:54;;;;;;;23.60;9.60;;;;;;;;;;10252473;28;20282;-62
2020/12/10 22:58:52;;;;;;;20.13;8.93;;;;;;;;;;10233800;28;20468;-63
2020/12/10 23:03:50;;;;;;;20.53;7.83;;;;;;;;;;10245151;28;20041;-62
2020/12/10 23:08:48;;;;;;;24.67;10.07;;;;;;;;;;10234209;28;20034;-61
2020/12/10 23:13:45;;;;;;;28.13;10.43;;;;;;;;;;10203697;28;20038;-62
2020/12/10 23:18:43;;;;;;;22.33;8.53;;;;;;;;;;10164532;28;20047;-66
2020/12/10 23:23:41;;;;;;;24.38;9.75;;;;;;;;;;10201957;28;20503;-62
2020/12/10 23:28:38;;;;;;;18.90;7.10;;;;;;;;;;10191461;28;21053;-62
2020/12/10 23:33:36;;;;;;;19.67;9.37;;;;;;;;;;10229017;28;20054;-62
2020/12/10 23:38:34;;;;;;;32.80;11.73;;;;;;;;;;10185976;28;20046;-61
2020/12/10 23:43:31;;;;;;;22.63;9.00;;;;;;;;;;10229937;28;20133;-61
2020/12/10 23:48:29;;;;;;;26.57;10.87;;;;;;;;;;10204736;28;20030;-59
2020/12/10 23:53:26;;;;;;;21.00;9.93;;;;;;;;;;10227166;28;20510;-61
2020/12/10 23:58:24;;;;;;;19.77;9.83;;;;;;;;;;10226205;28;20492;-59
